WEATHER DATA

YESTERDAY
Time Temp. Dewp. Hum. Bar. 1h Prec. 24h Prec.
00:15 9.6 2.7 62 1024.4 0.0000 0.0000
00:25 9.6 2.7 62 1024.4 0.0000 0.0000
00:35 9.8 2.9 62 1024.4 0.0000 0.0000
00:46 9.3 2.6 63 1024.4 0.0000 0.0000
00:55 9 2.3 63 1024.4 0.0000 0.0000
01:05 8.6 2.2 64 1024.3 0.0000 0.0000
01:16 8.4 2.2 65 1024.2 0.0000 0.0000
01:26 8.7 2.5 65 1024.3 0.0000 0.0000
01:36 8.8 2.6 65 1024.3 0.0000 0.0000
01:45 8.6 2.2 64 1024.2 0.0000 0.0000
01:56 8.4 2.2 65 1024.1 0.0000 0.0000
02:06 8.4 2.2 65 1024.2 0.0000 0.0000
02:16 8.2 2 65 1024.1 0.0000 0.0000
02:26 8.2 2 65 1024.1 0.0000 0.0000
02:36 7.8 1.6 65 1024.1 0.0000 0.0000
02:46 7.6 1.7 66 1024 0.0000 0.0000
02:56 7.4 1.7 67 1023.8 0.0000 0.0000
03:07 7.6 1.9 67 1023.8 0.0000 0.0000
03:16 7.6 1.9 67 1023.8 0.0000 0.0000
03:26 7.5 1.8 67 1023.7 0.0000 0.0000
03:37 7.4 1.7 67 1023.8 0.0000 0.0000
03:47 7.2 1.7 68 1023.8 0.0000 0.0000
03:56 7 1.5 68 1023.7 0.0000 0.0000
04:06 6.9 1.6 69 1023.7 0.0000 0.0000
04:17 6.7 1.4 69 1023.8 0.0000 0.0000
04:27 6.4 1.1 69 1023.7 0.0000 0.0000
04:37 6.2 1.1 70 1023.7 0.0000 0.0000
04:47 6.1 1 70 1023.6 0.0000 0.0000
04:57 6 1.1 71 1023.5 0.0000 0.0000
05:07 5.8 1 71 1023.6 0.0000 0.0000
05:17 5.7 1.1 72 1023.4 0.0000 0.0000
05:27 5.6 1 72 1023.3 0.0000 0.0000
05:37 5.5 0.9 72 1023.4 0.0000 0.0000
05:47 5.4 1 73 1023.3 0.0000 0.0000
05:57 5.3 0.9 73 1023.4 0.0000 0.0000
06:07 5.2 0.8 73 1023.4 0.0000 0.0000
06:27 5 0.8 74 1023.4 0.0000 0.0000
06:38 4.9 0.7 74 1023.5 0.0000 0.0000
06:48 4.8 0.6 74 1023.6 0.0000 0.0000
06:57 4.7 0.5 74 1023.6 0.0000 0.0000
07:08 4.5 0.3 74 1023.7 0.0000 0.0000
07:18 4.4 0.4 75 1023.7 0.0000 0.0000
07:28 4.4 0.4 75 1023.7 0.0000 0.0000
07:37 4.4 0.4 75 1023.8 0.0000 0.0000
07:48 4.5 0.6 76 1023.8 0.0000 0.0000
07:58 4.8 0.9 76 1024 0.0000 0.0000
08:08 5 1.1 76 1024 0.0000 0.0000
08:18 5.4 1.5 76 1024.1 0.0000 0.0000
08:28 5.6 1.7 76 1024 0.0000 0.0000
08:38 5.9 2 76 1024.1 0.0000 0.0000
08:48 6.3 2.4 76 1024.2 0.0000 0.0000
08:59 6.7 2.8 76 1024.3 0.0000 0.0000
09:08 7.1 3.2 76 1024.3 0.0000 0.0000
09:18 7.6 3.6 76 1024.5 0.0000 0.0000
09:29 8.1 3.9 75 1024.4 0.0000 0.0000
09:39 8.6 4.4 75 1024.5 0.0000 0.0000
09:48 9 4.6 74 1024.5 0.0000 0.0000
09:58 9.6 5 73 1024.5 0.0000 0.0000
10:09 10.2 5.6 73 1024.4 0.0000 0.0000
10:19 10.8 6 72 1024.3 0.0000 0.0000
10:29 11.4 6.1 70 1024.2 0.0000 0.0000
10:39 12 6.3 68 1024.2 0.0000 0.0000
10:49 12.5 6.3 66 1024.1 0.0000 0.0000
10:59 12.9 6.5 65 1024 0.0000 0.0000
11:09 13.3 6.4 63 1024 0.0000 0.0000
11:19 13.5 6.4 62 1023.8 0.0000 0.0000
11:29 13.9 6.5 61 1023.6 0.0000 0.0000
11:39 14.2 6.6 60 1023.6 0.0000 0.0000
11:50 14.5 6.6 59 1023.5 0.0000 0.0000
12:00 14.9 6.7 58 1023.5 0.0000 0.0000
12:09 15.2 6.7 57 1023.4 0.0000 0.0000
12:19 15.5 6.8 56 1023.2 0.0000 0.0000
12:30 15.7 7 56 1023.1 0.0000 0.0000
12:40 15.9 6.9 55 1023 0.0000 0.0000
12:49 16.1 6.8 54 1022.9 0.0000 0.0000
13:00 16.5 7.2 54 1022.9 0.0000 0.0000
13:10 16.7 7.1 53 1022.9 0.0000 0.0000
13:20 16.9 7 52 1022.8 0.0000 0.0000
13:30 17.1 7.2 52 1022.8 0.0000 0.0000
13:40 17.4 7.2 51 1022.7 0.0000 0.0000
13:50 17.5 7 50 1022.6 0.0000 0.0000
14:00 17.7 6.6 48 1022.5 0.0000 0.0000
14:11 17.9 6.7 48 1022.4 0.0000 0.0000
14:20 18.1 6.6 47 1022.3 0.0000 0.0000
14:30 18.3 6.5 46 1022.2 0.0000 0.0000
14:40 18.5 6.7 46 1022.2 0.0000 0.0000
14:51 18.6 6.4 45 1022 0.0000 0.0000
15:01 18.8 6.3 44 1022 0.0000 0.0000
15:10 19 6.5 44 1021.9 0.0000 0.0000
15:21 19.1 6.2 43 1021.8 0.0000 0.0000
15:31 19.3 6.4 43 1021.7 0.0000 0.0000
15:41 19.4 6.2 42 1021.7 0.0000 0.0000
15:51 19.5 5.9 41 1021.4 0.0000 0.0000
16:01 19.6 6 41 1021.3 0.0000 0.0000
16:11 19.6 5.6 40 1021.2 0.0000 0.0000
16:21 19.7 5.7 40 1021.2 0.0000 0.0000
16:32 19.7 5.7 40 1021.1 0.0000 0.0000
16:42 19.7 5.4 39 1021 0.0000 0.0000
16:51 19.8 5.5 39 1021 0.0000 0.0000
17:01 19.7 5.4 39 1021 0.0000 0.0000
17:12 19.7 5.7 40 1020.9 0.0000 0.0000
17:22 19.7 5.7 40 1020.9 0.0000 0.0000
17:31 19.6 5.6 40 1020.8 0.0000 0.0000
17:42 19.5 5.6 40 1020.7 0.0000 0.0000
17:52 19.3 5.4 40 1020.8 0.0000 0.0000
18:02 19.2 5.3 40 1020.7 0.0000 0.0000
18:12 18.8 4.9 40 1020.6 0.0000 0.0000
18:22 18.5 4.7 40 1020.6 0.0000 0.0000
18:32 18.1 4.7 41 1020.6 0.0000 0.0000
18:42 17.8 4.4 41 1020.6 0.0000 0.0000
18:52 17.4 4 41 1020.5 0.0000 0.0000
19:03 16.9 3.9 42 1020.5 0.0000 0.0000
19:17 16.3 3.7 43 1020.7 0.0000 0.0000
19:28 15.9 3.7 44 1020.7 0.0000 0.0000
19:38 15.6 3.7 45 1020.7 0.0000 0.0000
19:48 15.2 3.4 45 1020.7 0.0000 0.0000
19:57 14.9 3.4 46 1020.7 0.0000 0.0000
20:08 14.5 3.3 47 1020.8 0.0000 0.0000
20:18 14.2 3.4 48 1021 0.0000 0.0000
20:28 13.8 3.3 49 1021.1 0.0000 0.0000
20:38 13.3 3.1 50 1021 0.0000 0.0000
20:48 13 3.1 51 1021.1 0.0000 0.0000
20:58 12.7 3.1 52 1021.1 0.0000 0.0000
21:08 12.6 3.3 53 1021.1 0.0000 0.0000
21:19 12.5 3.2 53 1021 0.0000 0.0000
21:29 12.5 3.5 54 1020.9 0.0000 0.0000
21:38 12.7 3.6 54 1020.8 0.0000 0.0000
21:49 12.5 3.5 54 1020.7 0.0000 0.0000
21:59 12.4 3.6 55 1020.7 0.0000 0.0000
22:09 12.2 3.4 55 1020.6 0.0000 0.0000
22:18 12 3.5 56 1020.5 0.0000 0.0000
22:29 11.8 3.6 57 1020.4 0.0000 0.0000
22:39 11.6 3.4 57 1020.4 0.0000 0.0000
22:49 11.4 3.4 58 1020.4 0.0000 0.0000
22:59 11.5 3.8 59 1020.3 0.0000 0.0000
23:09 11.5 3.8 59 1020.2 0.0000 0.0000
23:19 11.5 3.8 59 1020.2 0.0000 0.0000
23:29 11.7 4 59 1020.1 0.0000 0.0000
23:40 11.6 3.9 59 1020.1 0.0000 0.0000
23:50 11.5 3.8 59 1020.2 0.0000 0.0000

DAY STATISTIC

2019-09-20
TEMPERATURE
AVERAGE
12.0
HIGH
19.8
16:51
LOW
4.4
07:18
PRESSURE
AVERAGE
1022.6
HIGH
1024.5
09:18
LOW
1020.1
23:29
DEWPOINT
AVERAGE
3.8
HIGH
7.2
13:00
LOW
0.3
07:08
HUMIDITY
AVERAGE
59
HIGH
76
07:48
LOW
39
16:42
PRECIPITATION
RAIN HOUR
0.0
RAIN DAY
0.0
TEMPERATURE (°C)
LOW
4.4
HIGH
19.8
AVERAGE
12.0
PRESSURE (hpa)
LOW
1020.1
HIGH
1024.5
AVERAGE
1022.6
DEVICE